ADDS METAR Data INFO
IDs: Format: Raw Decoded Include TAF

Data at: 0215 UTC 18 Jan 2018

KGGW 180153Z AUTO 10007KT 10SM CLR M06/M08 A2997 RMK AO2 SLP199 T10611083
KGGW 180053Z AUTO 12004KT 10SM CLR M05/M09 A2999 RMK AO2 SLP206 T10501089
KGGW 172353Z AUTO 08003KT 10SM CLR M06/M09 A3001 RMK AO2 SLP214 T10611094 11028 21094 56019
KGGW 172253Z AUTO 13003KT 10SM CLR M04/M08 A3001 RMK AO2 SLP212 T10441083
KGGW 172153Z AUTO 07005KT 10SM CLR M05/M09 A3004 RMK AO2 SLP223 T10501089
KGGW 172053Z AUTO 00000KT 10SM CLR M05/M09 A3007 RMK AO2 SLP234 T10501089 58027
KGGW 171953Z AUTO 00000KT 10SM CLR M07/M13 A3010 RMK AO2 SLP244 T10671133
KGGW 171853Z AUTO 00000KT 10SM CLR M08/M14 A3013 RMK AO2 SLP259 T10831144
KGGW 171753Z AUTO 36003KT 10SM CLR M08/M13 A3016 RMK AO2 SLP265 T10831128 11083 21211 53002
KGGW 171653Z AUTO 03003KT 10SM CLR M12/M16 A3016 RMK AO2 SLP267 T11221156
KGGW 171553Z AUTO 00000KT 10SM CLR M15/M17 A3015 RMK AO2 SLP266 T11501172
KGGW 171453Z AUTO 33003KT 10SM CLR M17/M19 A3015 RMK AO2 SLP270 T11721194 53001
KGGW 171353Z AUTO 00000KT 10SM CLR M20/M23 A3015 RMK AO2 SLP271 T12001233
KGGW 171253Z AUTO 00000KT 10SM CLR M21/M24 A3015 RMK AO2 SLP272 T12061239
KGGW 171153Z AUTO 29005KT 10SM CLR M21/M24 A3015 RMK AO2 SLP271 T12061239 11178 21206 51007
KGGW 171053Z AUTO 30003KT 10SM CLR M19/M23 A3015 RMK AO2 SLP268 T11891228
KGGW 170953Z AUTO 35005KT 10SM CLR M19/M23 A3015 RMK AO2 SLP268 T11941228
KGGW 170853Z AUTO 32006KT 10SM CLR M20/M23 A3013 RMK AO2 SLP262 T12001228 53005
KGGW 170753Z AUTO 29004KT 10SM CLR M19/M22 A3012 RMK AO2 SLP258 T11941222
KGGW 170653Z AUTO 32006KT 10SM CLR M19/M22 A3012 RMK AO2 SLP262 T11941217
KGGW 170553Z AUTO 32005KT 10SM CLR M18/M21 A3011 RMK AO2 SLP259 T11831206 11133 21183 53004
KGGW 170453Z AUTO 31004KT 10SM CLR M17/M20 A3010 RMK AO2 SLPNO T11721200
KGGW 170353Z AUTO 00000KT 10SM CLR M17/M20 A3009 RMK AO2 SLPNO T11671200
KGGW 170253Z AUTO 12008KT 10SM CLR M16/M20 A3010 RMK AO2 SLPNO T11611200 58008
KGGW 170153Z AUTO 13008KT 10SM CLR M15/M19 A3012 RMK AO2 SLPNO T11501189
KGGW 170053Z AUTO 12010KT 10SM CLR M14/M18 A3010 RMK AO2 SLPNO T11441183
KGGW 162353Z AUTO 12010KT 10SM CLR M14/M18 A3012 RMK AO2 SLPNO T11391183 11128 21178 58018
KGGW 162253Z AUTO 11010KT 10SM CLR M13/M18 A3014 RMK AO2 SLPNO T11331178
KGGW 162153Z AUTO 10012KT 10SM CLR M13/M18 A3016 RMK AO2 SLPNO T11331178
KGGW 162053Z AUTO 11014KT 10SM CLR M14/M18 A3018 RMK AO2 SLPNO T11391183 56031
KGGW 161953Z AUTO 12014KT 10SM CLR M14/M19 A3020 RMK AO2 SLPNO T11441189
KGGW 161853Z AUTO 11016KT 10SM CLR M16/M21 A3023 RMK AO2 SLPNO T11611211
KGGW 161753Z AUTO 11016KT 10SM CLR M18/M22 A3027 RMK AO2 SLPNO T11781222 58016
KGGW 161653Z AUTO 11014KT 10SM CLR A3029 RMK AO2 SLPNO $
KGGW 161553Z AUTO 11015KT 10SM CLR A3031 RMK AO2 SLPNO $
KGGW 161453Z AUTO 10014KT 10SM CLR A3032 RMK AO2 SLPNO 56031 $